createdAt,value
2018-11-03T00:00:14.255Z,1017.32
2018-11-03T00:01:14.245Z,1017.29
2018-11-03T00:02:14.234Z,1017.24
2018-11-03T00:03:14.546Z,1017.27
2018-11-03T00:04:14.227Z,1017.27
2018-11-03T00:05:14.202Z,1017.29
2018-11-03T00:06:14.191Z,1017.27
2018-11-03T00:07:14.181Z,1017.29
2018-11-03T00:08:14.171Z,1017.29
2018-11-03T00:09:14.241Z,1017.27
2018-11-03T00:10:14.157Z,1017.27
2018-11-03T00:11:14.714Z,1017.29
2018-11-03T00:12:14.138Z,1017.35
2018-11-03T00:13:14.136Z,1017.34
2018-11-03T00:14:14.723Z,1017.23
2018-11-03T00:15:14.621Z,1017.30
2018-11-03T00:16:14.092Z,1017.24
2018-11-03T00:17:14.081Z,1017.29
2018-11-03T00:18:14.070Z,1017.32
2018-11-03T00:19:14.061Z,1017.25
2018-11-03T00:20:14.051Z,1017.29
2018-11-03T00:21:14.089Z,1017.26
2018-11-03T00:22:14.313Z,1017.28
2018-11-03T00:23:14.019Z,1017.28
2018-11-03T00:24:14.020Z,1017.26
2018-11-03T00:25:13.997Z,1017.33
2018-11-03T00:26:14.721Z,1017.35
2018-11-03T00:27:15.186Z,1017.34
2018-11-03T00:28:13.969Z,1017.28
2018-11-03T00:29:14.246Z,1017.36
2018-11-03T00:30:14.713Z,1017.38
2018-11-03T00:31:13.932Z,1017.37
2018-11-03T00:32:13.922Z,1017.44
2018-11-03T00:33:14.073Z,1017.46
2018-11-03T00:34:13.905Z,1017.45
2018-11-03T00:35:13.890Z,1017.49
2018-11-03T00:36:14.162Z,1017.49
2018-11-03T00:37:13.867Z,1017.47
2018-11-03T00:38:14.679Z,1017.53
2018-11-03T00:39:15.669Z,1017.52
2018-11-03T00:40:13.989Z,1017.51
2018-11-03T00:41:14.318Z,1017.54
2018-11-03T00:42:13.852Z,1017.49
2018-11-03T00:43:14.179Z,1017.49
2018-11-03T00:44:13.798Z,1017.54
2018-11-03T00:45:13.925Z,1017.49
2018-11-03T00:46:13.771Z,1017.54
2018-11-03T00:47:13.760Z,1017.48
2018-11-03T00:48:13.750Z,1017.59
2018-11-03T00:49:13.742Z,1017.57
2018-11-03T00:50:14.051Z,1017.52
2018-11-03T00:51:13.850Z,1017.53
2018-11-03T00:52:13.713Z,1017.57
2018-11-03T00:53:13.714Z,1017.59
2018-11-03T00:54:13.689Z,1017.61
2018-11-03T00:55:13.679Z,1017.64
2018-11-03T00:56:13.678Z,1017.63
2018-11-03T00:57:14.088Z,1017.67
2018-11-03T00:58:13.646Z,1017.70
2018-11-03T00:59:13.648Z,1017.72
2018-11-03T01:00:13.630Z,1017.74
2018-11-03T01:01:13.614Z,1017.74
2018-11-03T01:02:13.609Z,1017.74
2018-11-03T01:03:14.716Z,1017.76
2018-11-03T01:04:13.867Z,1017.76
2018-11-03T01:05:13.583Z,1017.81
2018-11-03T01:06:13.568Z,1017.78
2018-11-03T01:07:13.554Z,1017.76
2018-11-03T01:08:13.591Z,1017.77
2018-11-03T01:09:13.665Z,1017.79
2018-11-03T01:10:13.529Z,1017.80
2018-11-03T01:11:13.802Z,1017.80
2018-11-03T01:12:13.510Z,1017.82
2018-11-03T01:13:13.497Z,1017.83
2018-11-03T01:14:13.490Z,1017.85
2018-11-03T01:15:13.592Z,1017.83
2018-11-03T01:16:13.459Z,1017.80
2018-11-03T01:17:13.457Z,1017.84
2018-11-03T01:18:13.744Z,1017.82
2018-11-03T01:19:13.427Z,1017.84
2018-11-03T01:20:13.416Z,1017.82
2018-11-03T01:21:13.558Z,1017.81
2018-11-03T01:22:13.406Z,1017.82
2018-11-03T01:23:13.398Z,1017.87
2018-11-03T01:24:13.376Z,1017.82
2018-11-03T01:25:13.648Z,1017.81
2018-11-03T01:26:13.354Z,1017.81
2018-11-03T01:27:13.472Z,1017.88
2018-11-03T01:28:13.336Z,1017.78
2018-11-03T01:29:13.325Z,1017.82
2018-11-03T01:30:13.322Z,1017.80
2018-11-03T01:31:13.310Z,1017.83
2018-11-03T01:32:13.626Z,1017.87
2018-11-03T01:33:13.404Z,1017.82
2018-11-03T01:34:13.272Z,1017.86
2018-11-03T01:35:13.269Z,1017.87
2018-11-03T01:36:13.258Z,1017.90
2018-11-03T01:37:13.253Z,1017.84
2018-11-03T01:38:13.231Z,1017.83
2018-11-03T01:39:13.392Z,1017.80
2018-11-03T01:40:13.221Z,1017.79
2018-11-03T01:41:13.198Z,1017.77
2018-11-03T01:42:13.198Z,1017.77
2018-11-03T01:43:13.199Z,1017.75
2018-11-03T01:44:13.201Z,1017.78
2018-11-03T01:45:13.305Z,1017.76
2018-11-03T01:46:13.242Z,1017.75
2018-11-03T01:47:13.135Z,1017.81
2018-11-03T01:48:13.147Z,1017.77
2018-11-03T01:49:13.117Z,1017.80
2018-11-03T01:50:13.105Z,1017.79
2018-11-03T01:51:13.231Z,1017.78
2018-11-03T01:52:13.085Z,1017.76
2018-11-03T01:53:13.697Z,1017.79
2018-11-03T01:54:13.064Z,1017.77
2018-11-03T01:55:13.053Z,1017.81
2018-11-03T01:56:13.045Z,1017.76
2018-11-03T01:57:13.694Z,1017.79
2018-11-03T01:58:13.028Z,1017.82
2018-11-03T01:59:13.699Z,1017.84
2018-11-03T02:00:13.005Z,1017.86
2018-11-03T02:01:12.992Z,1017.85
2018-11-03T02:02:12.995Z,1017.87
2018-11-03T02:03:13.108Z,1017.90
2018-11-03T02:04:13.692Z,1017.90
2018-11-03T02:05:12.967Z,1017.89
2018-11-03T02:06:12.950Z,1017.85
2018-11-03T02:07:12.929Z,1017.92
2018-11-03T02:08:12.927Z,1017.96
2018-11-03T02:09:13.320Z,1017.97
2018-11-03T02:10:12.898Z,1017.96
2018-11-03T02:11:12.886Z,1018.00
2018-11-03T02:12:12.881Z,1018.02
2018-11-03T02:13:12.869Z,1018.02
2018-11-03T02:14:12.861Z,1018.02
2018-11-03T02:15:13.696Z,1018.02
2018-11-03T02:16:13.126Z,1018.03
2018-11-03T02:17:12.826Z,1018.02
2018-11-03T02:18:12.825Z,1018.03
2018-11-03T02:19:12.848Z,1018.02
2018-11-03T02:20:12.802Z,1018.04
2018-11-03T02:21:12.934Z,1018.02
2018-11-03T02:22:12.775Z,1018.05
2018-11-03T02:23:13.046Z,1018.00
2018-11-03T02:24:12.756Z,1018.07
2018-11-03T02:25:12.744Z,1018.02
2018-11-03T02:26:12.733Z,1018.03
2018-11-03T02:27:12.867Z,1018.00
2018-11-03T02:28:12.715Z,1018.01
2018-11-03T02:29:12.705Z,1018.01
2018-11-03T02:30:12.707Z,1018.05
2018-11-03T02:31:12.681Z,1018.04
2018-11-03T02:32:12.670Z,1018.09
2018-11-03T02:33:12.796Z,1018.08
2018-11-03T02:34:12.651Z,1018.03
2018-11-03T02:35:12.641Z,1018.08
2018-11-03T02:36:13.037Z,1018.05
2018-11-03T02:37:12.627Z,1018.06
2018-11-03T02:38:12.621Z,1018.08
2018-11-03T02:39:12.850Z,1018.05
2018-11-03T02:40:12.587Z,1018.04
2018-11-03T02:41:12.581Z,1018.00
2018-11-03T02:42:12.571Z,1018.01
2018-11-03T02:43:12.840Z,1017.98
2018-11-03T02:44:12.552Z,1018.02
2018-11-03T02:45:12.663Z,1018.01
2018-11-03T02:46:12.541Z,1017.98
2018-11-03T02:47:12.529Z,1018.01
2018-11-03T02:48:12.553Z,1018.01
2018-11-03T02:49:12.497Z,1018.01
2018-11-03T02:50:12.768Z,1018.03
2018-11-03T02:51:12.632Z,1018.02
2018-11-03T02:52:12.470Z,1017.99
2018-11-03T02:53:12.468Z,1017.99
2018-11-03T02:54:12.446Z,1017.92
2018-11-03T02:55:12.433Z,1017.96
2018-11-03T02:56:12.425Z,1017.95
2018-11-03T02:57:13.689Z,1017.88
2018-11-03T02:58:12.451Z,1017.90
2018-11-03T02:59:12.394Z,1017.90
2018-11-03T03:01:27.160Z,1017.90
2018-11-03T03:02:28.182Z,1017.90
2018-11-03T03:03:27.393Z,1017.89
2018-11-03T03:04:27.106Z,1017.94
2018-11-03T03:05:27.103Z,1017.84
2018-11-03T03:06:27.088Z,1017.88
2018-11-03T03:07:27.172Z,1017.85
2018-11-03T03:08:27.318Z,1017.80
2018-11-03T03:09:27.387Z,1017.87
2018-11-03T03:10:27.045Z,1017.85
2018-11-03T03:11:27.032Z,1017.86
2018-11-03T03:12:27.024Z,1017.92
2018-11-03T03:13:27.753Z,1017.89
2018-11-03T03:14:27.072Z,1017.89
2018-11-03T03:15:26.990Z,1017.86
2018-11-03T03:16:26.995Z,1017.87
2018-11-03T03:17:26.969Z,1017.90
2018-11-03T03:18:26.959Z,1017.94
2018-11-03T03:19:26.952Z,1017.94
2018-11-03T03:20:27.021Z,1017.93
2018-11-03T03:21:27.228Z,1017.94
2018-11-03T03:22:26.917Z,1017.97
2018-11-03T03:23:26.909Z,1017.95
2018-11-03T03:24:26.898Z,1017.94
2018-11-03T03:25:26.886Z,1017.93
2018-11-03T03:26:28.751Z,1017.93
2018-11-03T03:27:27.713Z,1017.96
2018-11-03T03:28:27.140Z,1017.98
2018-11-03T03:29:26.880Z,1018.00
2018-11-03T03:30:26.835Z,1018.03
2018-11-03T03:31:26.825Z,1018.03
2018-11-03T03:32:26.891Z,1018.04
2018-11-03T03:33:26.803Z,1017.97
2018-11-03T03:34:26.792Z,1018.01
2018-11-03T03:35:27.067Z,1017.98
2018-11-03T03:36:26.772Z,1018.00
2018-11-03T03:37:26.759Z,1018.04
2018-11-03T03:38:26.822Z,1018.05
2018-11-03T03:39:26.739Z,1018.05
2018-11-03T03:40:26.731Z,1018.05
2018-11-03T03:41:26.717Z,1018.02
2018-11-03T03:42:27.198Z,1018.00
2018-11-03T03:43:26.758Z,1017.97
2018-11-03T03:44:26.917Z,1017.98
2018-11-03T03:45:26.677Z,1018.11
2018-11-03T03:46:26.664Z,1018.08
2018-11-03T03:47:26.653Z,1018.15
2018-11-03T03:48:26.642Z,1018.13
2018-11-03T03:49:26.635Z,1018.09
2018-11-03T03:50:26.700Z,1018.14
2018-11-03T03:51:26.614Z,1018.12
2018-11-03T03:52:27.130Z,1018.11
2018-11-03T03:53:26.590Z,1018.14
2018-11-03T03:54:26.590Z,1018.19
2018-11-03T03:55:26.570Z,1018.17
2018-11-03T03:56:26.635Z,1018.22
2018-11-03T03:57:26.550Z,1018.25
2018-11-03T03:58:26.537Z,1018.28
2018-11-03T03:59:26.550Z,1018.26
2018-11-03T04:00:26.516Z,1018.29
2018-11-03T04:01:26.787Z,1018.36
2018-11-03T04:02:26.599Z,1018.33
2018-11-03T04:03:26.483Z,1018.35
2018-11-03T04:04:26.501Z,1018.37
2018-11-03T04:05:26.463Z,1018.39
2018-11-03T04:06:26.453Z,1018.41
2018-11-03T04:07:26.444Z,1018.38
2018-11-03T04:08:26.504Z,1018.36
2018-11-03T04:09:26.426Z,1018.34
2018-11-03T04:10:26.410Z,1018.35
2018-11-03T04:11:26.399Z,1018.32
2018-11-03T04:12:26.392Z,1018.32
2018-11-03T04:13:26.666Z,1018.32
2018-11-03T04:14:26.447Z,1018.34
2018-11-03T04:15:26.358Z,1018.36
2018-11-03T04:16:26.349Z,1018.36
2018-11-03T04:17:26.339Z,1018.37
2018-11-03T04:18:26.325Z,1018.40
2018-11-03T04:19:26.315Z,1018.36
2018-11-03T04:20:26.404Z,1018.37
2018-11-03T04:21:26.296Z,1018.41
2018-11-03T04:22:26.293Z,1018.38
2018-11-03T04:23:26.273Z,1018.42
2018-11-03T04:24:26.263Z,1018.40
2018-11-03T04:25:26.257Z,1018.45
2018-11-03T04:26:26.323Z,1018.41
2018-11-03T04:27:26.231Z,1018.42
2018-11-03T04:28:26.222Z,1018.42
2018-11-03T04:29:26.210Z,1018.42
2018-11-03T04:30:26.211Z,1018.42
2018-11-03T04:31:26.500Z,1018.37
2018-11-03T04:32:26.255Z,1018.39
2018-11-03T04:33:26.168Z,1018.37
2018-11-03T04:34:26.162Z,1018.37
2018-11-03T04:35:26.145Z,1018.35
2018-11-03T04:36:26.140Z,1018.38
2018-11-03T04:37:26.126Z,1018.39
2018-11-03T04:38:26.768Z,1018.37
2018-11-03T04:39:26.105Z,1018.37
2018-11-03T04:40:26.095Z,1018.38
2018-11-03T04:41:26.089Z,1018.37
2018-11-03T04:42:26.072Z,1018.37
2018-11-03T04:43:26.062Z,1018.38
2018-11-03T04:44:26.129Z,1018.37
2018-11-03T04:45:26.072Z,1018.36
2018-11-03T04:46:26.030Z,1018.38
2018-11-03T04:47:26.020Z,1018.33
2018-11-03T04:48:26.008Z,1018.31
2018-11-03T04:49:25.997Z,1018.28
2018-11-03T04:50:26.058Z,1018.28
2018-11-03T04:51:26.261Z,1018.24
2018-11-03T04:52:25.966Z,1018.20
2018-11-03T04:53:25.958Z,1018.26
2018-11-03T04:54:25.945Z,1018.22
2018-11-03T04:55:25.966Z,1018.25
2018-11-03T04:56:26.022Z,1018.23
2018-11-03T04:57:25.912Z,1018.19
2018-11-03T04:58:26.183Z,1018.28
2018-11-03T04:59:25.891Z,1018.25
2018-11-03T05:00:25.881Z,1018.28
2018-11-03T05:01:25.872Z,1018.25
2018-11-03T05:02:25.957Z,1018.24
2018-11-03T05:03:25.850Z,1018.25
2018-11-03T05:04:25.839Z,1018.24
2018-11-03T05:05:26.172Z,1018.21
2018-11-03T05:06:25.816Z,1018.24
2018-11-03T05:07:25.805Z,1018.22
2018-11-03T05:08:25.870Z,1018.21
2018-11-03T05:09:25.786Z,1018.24
2018-11-03T05:10:25.857Z,1018.21
2018-11-03T05:11:25.763Z,1018.22
2018-11-03T05:12:26.196Z,1018.25
2018-11-03T05:13:25.742Z,1018.25
2018-11-03T05:14:25.818Z,1018.27
2018-11-03T05:15:25.734Z,1018.30
2018-11-03T05:16:25.709Z,1018.25
2018-11-03T05:17:25.701Z,1018.21
2018-11-03T05:18:25.687Z,1018.27
2018-11-03T05:19:26.689Z,1018.25
2018-11-03T05:20:25.742Z,1018.30
2018-11-03T05:21:25.772Z,1018.29
2018-11-03T05:22:25.644Z,1018.27
2018-11-03T05:23:25.635Z,1018.31
2018-11-03T05:24:25.624Z,1018.31
2018-11-03T05:25:25.613Z,1018.34
2018-11-03T05:26:25.675Z,1018.30
2018-11-03T05:27:25.594Z,1018.33
2018-11-03T05:28:25.583Z,1018.34
2018-11-03T05:29:25.571Z,1018.37
2018-11-03T05:30:25.563Z,1018.34
2018-11-03T05:31:26.152Z,1018.30
2018-11-03T05:32:25.650Z,1018.32
2018-11-03T05:33:25.531Z,1018.32
2018-11-03T05:34:25.527Z,1018.36
2018-11-03T05:35:25.510Z,1018.34
2018-11-03T05:36:25.501Z,1018.33
2018-11-03T05:37:25.490Z,1018.37
2018-11-03T05:38:25.557Z,1018.36
2018-11-03T05:39:25.470Z,1018.38
2018-11-03T05:40:25.462Z,1018.39
2018-11-03T05:41:25.450Z,1018.33
2018-11-03T05:42:25.440Z,1018.33
2018-11-03T05:43:25.766Z,1018.35
2018-11-03T05:44:25.494Z,1018.37
2018-11-03T05:45:25.409Z,1018.37
2018-11-03T05:46:25.429Z,1018.41
2018-11-03T05:47:25.389Z,1018.40
2018-11-03T05:48:25.379Z,1018.45
2018-11-03T05:49:25.375Z,1018.44
2018-11-03T05:50:26.850Z,1018.44
2018-11-03T05:51:25.350Z,1018.45
2018-11-03T05:52:25.339Z,1018.44
2018-11-03T05:53:25.342Z,1018.44
2018-11-03T05:54:25.326Z,1018.42
2018-11-03T05:55:25.309Z,1018.46
2018-11-03T05:56:25.373Z,1018.47
2018-11-03T05:57:25.602Z,1018.46
2018-11-03T05:58:25.281Z,1018.45
2018-11-03T05:59:25.272Z,1018.41
2018-11-03T06:00:25.260Z,1018.46
2018-11-03T06:01:25.250Z,1018.44
2018-11-03T06:02:25.313Z,1018.46
2018-11-03T06:03:25.230Z,1018.44
2018-11-03T06:04:25.217Z,1018.48
2018-11-03T06:05:25.209Z,1018.46
2018-11-03T06:06:25.196Z,1018.52
2018-11-03T06:07:25.187Z,1018.50
2018-11-03T06:08:25.535Z,1018.54
2018-11-03T06:09:25.168Z,1018.52
2018-11-03T06:10:25.157Z,1018.58
2018-11-03T06:11:25.145Z,1018.58
2018-11-03T06:12:25.149Z,1018.57
2018-11-03T06:13:25.125Z,1018.57
2018-11-03T06:14:25.962Z,1018.54
2018-11-03T06:15:25.181Z,1018.56
2018-11-03T06:16:25.397Z,1018.63
2018-11-03T06:17:25.086Z,1018.58
2018-11-03T06:18:25.078Z,1018.63
2018-11-03T06:19:25.718Z,1018.67
2018-11-03T06:20:25.097Z,1018.60
2018-11-03T06:21:25.044Z,1018.59
2018-11-03T06:22:25.071Z,1018.60
2018-11-03T06:23:26.134Z,1018.63
2018-11-03T06:24:25.014Z,1018.61
2018-11-03T06:25:25.001Z,1018.61
2018-11-03T06:26:25.056Z,1018.63
2018-11-03T06:27:24.981Z,1018.66
2018-11-03T06:28:24.970Z,1018.68
2018-11-03T06:29:24.958Z,1018.61
2018-11-03T06:30:25.434Z,1018.62
2018-11-03T06:31:24.939Z,1018.63
2018-11-03T06:32:24.975Z,1018.60
2018-11-03T06:33:24.918Z,1018.62
2018-11-03T06:34:24.906Z,1018.61
2018-11-03T06:35:25.751Z,1018.64
2018-11-03T06:36:25.219Z,1018.71
2018-11-03T06:37:24.875Z,1018.72
2018-11-03T06:38:24.908Z,1018.71
2018-11-03T06:39:24.877Z,1018.72
2018-11-03T06:40:24.843Z,1018.71
2018-11-03T06:41:24.834Z,1018.72
2018-11-03T06:42:24.822Z,1018.67
2018-11-03T06:43:24.812Z,1018.71
2018-11-03T06:44:24.874Z,1018.73
2018-11-03T06:45:24.792Z,1018.70
2018-11-03T06:46:24.783Z,1018.75
2018-11-03T06:47:24.833Z,1018.74
2018-11-03T06:48:25.221Z,1018.75
2018-11-03T06:49:24.750Z,1018.74
2018-11-03T06:50:27.132Z,1018.78
2018-11-03T06:51:24.729Z,1018.75
2018-11-03T06:52:24.813Z,1018.73
2018-11-03T06:53:24.708Z,1018.73
2018-11-03T06:54:24.697Z,1018.71
2018-11-03T06:55:24.684Z,1018.68
2018-11-03T06:56:24.818Z,1018.67
2018-11-03T06:57:24.697Z,1018.72
2018-11-03T06:58:24.654Z,1018.71
2018-11-03T06:59:24.644Z,1018.74
2018-11-03T07:00:25.673Z,1018.78
2018-11-03T07:01:24.826Z,1018.76
2018-11-03T07:02:24.843Z,1018.80
2018-11-03T07:03:24.602Z,1018.81
2018-11-03T07:04:24.590Z,1018.81
2018-11-03T07:05:24.580Z,1018.77
2018-11-03T07:06:24.569Z,1018.84
2018-11-03T07:07:24.987Z,1018.83
2018-11-03T07:08:24.685Z,1018.84
2018-11-03T07:09:24.539Z,1018.88
2018-11-03T07:10:24.588Z,1018.92
2018-11-03T07:11:24.534Z,1018.89
2018-11-03T07:12:24.726Z,1018.89
2018-11-03T07:13:24.632Z,1018.89
2018-11-03T07:14:25.063Z,1018.89
2018-11-03T07:15:24.561Z,1018.80
2018-11-03T07:16:24.473Z,1018.79
2018-11-03T07:17:24.557Z,1018.84
2018-11-03T07:18:24.448Z,1018.83
2018-11-03T07:19:24.435Z,1018.82
2018-11-03T07:20:24.587Z,1018.82
2018-11-03T07:21:24.425Z,1018.83
2018-11-03T07:22:24.422Z,1018.83
2018-11-03T07:23:24.404Z,1018.88
2018-11-03T07:24:24.402Z,1018.85
2018-11-03T07:25:24.376Z,1018.86
2018-11-03T07:26:24.584Z,1018.81
2018-11-03T07:27:24.811Z,1018.86
2018-11-03T07:28:24.343Z,1018.79
2018-11-03T07:29:24.341Z,1018.80
2018-11-03T07:30:24.324Z,1018.79
2018-11-03T07:31:24.311Z,1018.88
2018-11-03T07:32:24.529Z,1018.86
2018-11-03T07:33:24.292Z,1018.89
2018-11-03T07:34:24.280Z,1018.93
2018-11-03T07:35:24.273Z,1018.95
2018-11-03T07:36:25.203Z,1018.91
2018-11-03T07:37:24.250Z,1018.94
2018-11-03T07:38:24.502Z,1018.93
2018-11-03T07:39:24.229Z,1018.97
2018-11-03T07:40:24.620Z,1018.98
2018-11-03T07:41:24.263Z,1019.00
2018-11-03T07:42:24.249Z,1019.02
2018-11-03T07:43:24.197Z,1018.98
2018-11-03T07:44:24.440Z,1018.97
2018-11-03T07:45:24.167Z,1018.97
2018-11-03T07:46:24.606Z,1019.02
2018-11-03T07:47:24.376Z,1019.04
2018-11-03T07:48:24.306Z,1019.03
2018-11-03T07:49:24.353Z,1019.08
2018-11-03T07:50:25.151Z,1019.01
2018-11-03T07:51:24.141Z,1019.02
2018-11-03T07:52:24.799Z,1019.01
2018-11-03T07:53:24.090Z,1019.02
2018-11-03T07:54:24.762Z,1019.07
2018-11-03T07:55:24.700Z,1019.00
2018-11-03T07:56:24.584Z,1019.03
2018-11-03T07:57:24.208Z,1019.03
2018-11-03T07:58:24.033Z,1018.98
2018-11-03T07:59:24.022Z,1018.99
2018-11-03T08:00:24.755Z,1018.98
2018-11-03T08:01:24.003Z,1019.00
2018-11-03T08:02:24.419Z,1018.97
2018-11-03T08:03:23.983Z,1018.95
2018-11-03T08:04:25.185Z,1018.91
2018-11-03T08:05:23.962Z,1018.94
2018-11-03T08:06:24.696Z,1018.91
2018-11-03T08:07:24.090Z,1018.92
2018-11-03T08:08:24.053Z,1018.90
2018-11-03T08:09:23.943Z,1018.90
2018-11-03T08:10:24.699Z,1018.90
2018-11-03T08:11:24.388Z,1018.89
2018-11-03T08:12:24.722Z,1018.88
2018-11-03T08:13:24.656Z,1018.86
2018-11-03T08:14:23.999Z,1018.87
2018-11-03T08:15:23.859Z,1018.87
2018-11-03T08:16:23.937Z,1018.91
2018-11-03T08:17:24.656Z,1018.92
2018-11-03T08:18:24.206Z,1018.94
2018-11-03T08:19:23.816Z,1018.93
2018-11-03T08:20:24.693Z,1018.88
2018-11-03T08:21:23.795Z,1018.91
2018-11-03T08:22:23.787Z,1018.92
2018-11-03T08:23:23.810Z,1018.92
2018-11-03T08:24:24.653Z,1018.96
2018-11-03T08:25:23.786Z,1018.91
2018-11-03T08:26:23.866Z,1018.95
2018-11-03T08:27:23.737Z,1018.92
2018-11-03T08:28:23.722Z,1018.86
2018-11-03T08:29:23.723Z,1018.86
2018-11-03T08:30:23.821Z,1018.87
2018-11-03T08:31:24.655Z,1018.86
2018-11-03T08:32:24.697Z,1018.87
2018-11-03T08:33:23.671Z,1018.88
2018-11-03T08:34:23.685Z,1018.85
2018-11-03T08:35:23.655Z,1018.83
2018-11-03T08:36:23.639Z,1018.82
2018-11-03T08:37:23.630Z,1018.77
2018-11-03T08:38:24.780Z,1018.79
2018-11-03T08:39:23.697Z,1018.83
2018-11-03T08:40:23.599Z,1018.83
2018-11-03T08:41:23.588Z,1018.83
2018-11-03T08:42:24.065Z,1018.78
2018-11-03T08:43:23.668Z,1018.79
2018-11-03T08:44:24.653Z,1018.81
2018-11-03T08:45:23.969Z,1018.76
2018-11-03T08:46:23.691Z,1018.78
2018-11-03T08:47:23.659Z,1018.74
2018-11-03T08:48:23.913Z,1018.69
2018-11-03T08:49:23.512Z,1018.74
2018-11-03T08:50:23.634Z,1018.71
2018-11-03T08:51:24.148Z,1018.69
2018-11-03T08:52:24.016Z,1018.71
2018-11-03T08:53:23.643Z,1018.72
2018-11-03T08:54:23.474Z,1018.76
2018-11-03T08:55:23.444Z,1018.76
2018-11-03T08:56:27.996Z,1018.75
2018-11-03T08:59:20.598Z,1018.75
2018-11-03T09:00:21.278Z,1018.74
2018-11-03T09:01:20.472Z,1018.80
2018-11-03T09:02:21.733Z,1018.77
2018-11-03T09:03:20.507Z,1018.76
2018-11-03T09:04:20.848Z,1018.81
2018-11-03T09:05:20.438Z,1018.82
2018-11-03T09:06:20.479Z,1018.83
2018-11-03T09:07:20.424Z,1018.77
2018-11-03T09:08:20.878Z,1018.77
2018-11-03T09:09:20.444Z,1018.77
2018-11-03T09:10:20.376Z,1018.82
2018-11-03T09:11:20.786Z,1018.80
2018-11-03T09:12:20.355Z,1018.75
2018-11-03T09:13:20.591Z,1018.76
2018-11-03T09:14:20.820Z,1018.74
2018-11-03T09:15:20.699Z,1018.75
2018-11-03T09:16:21.270Z,1018.73
2018-11-03T09:17:20.327Z,1018.74
2018-11-03T09:18:20.793Z,1018.74
2018-11-03T09:19:20.437Z,1018.73
2018-11-03T09:20:20.723Z,1018.74
2018-11-03T09:21:20.443Z,1018.71
2018-11-03T09:22:20.398Z,1018.64
2018-11-03T09:23:20.402Z,1018.68
2018-11-03T09:24:20.349Z,1018.64
2018-11-03T09:25:21.096Z,1018.66
2018-11-03T09:26:21.591Z,1018.59
2018-11-03T09:27:20.408Z,1018.65
2018-11-03T09:28:20.356Z,1018.63
2018-11-03T09:29:20.298Z,1018.64
2018-11-03T09:30:20.180Z,1018.66
2018-11-03T09:31:20.768Z,1018.63
2018-11-03T09:32:20.560Z,1018.63
2018-11-03T09:33:20.408Z,1018.62
2018-11-03T09:34:20.645Z,1018.62
2018-11-03T09:35:20.115Z,1018.58
2018-11-03T09:36:20.292Z,1018.60
2018-11-03T09:37:20.278Z,1018.58
2018-11-03T09:38:20.312Z,1018.60
2018-11-03T09:39:20.717Z,1018.59
2018-11-03T09:40:20.114Z,1018.61
2018-11-03T09:41:20.112Z,1018.60
2018-11-03T09:42:20.213Z,1018.66
2018-11-03T09:43:20.760Z,1018.62
2018-11-03T09:44:20.800Z,1018.65
2018-11-03T09:45:20.178Z,1018.65
2018-11-03T09:46:20.673Z,1018.63
2018-11-03T09:47:37.988Z,1018.64
2018-11-03T09:48:20.296Z,1018.66
2018-11-03T09:49:20.783Z,1018.68
2018-11-03T09:50:20.359Z,1018.63
2018-11-03T09:51:21.144Z,1018.67
2018-11-03T09:52:20.856Z,1018.64
2018-11-03T09:53:20.667Z,1018.61
2018-11-03T09:54:20.672Z,1018.59
2018-11-03T09:55:19.928Z,1018.58
2018-11-03T09:56:20.787Z,1018.57
2018-11-03T09:57:20.625Z,1018.56
2018-11-03T09:58:19.974Z,1018.55
2018-11-03T09:59:20.625Z,1018.55
2018-11-03T10:00:19.844Z,1018.53
2018-11-03T10:01:19.838Z,1018.52
2018-11-03T10:02:19.964Z,1018.49
2018-11-03T10:03:19.814Z,1018.51
2018-11-03T10:04:19.882Z,1018.54
2018-11-03T10:05:19.884Z,1018.51
2018-11-03T10:06:19.810Z,1018.50
2018-11-03T10:07:19.809Z,1018.54
2018-11-03T10:08:20.302Z,1018.53
2018-11-03T10:09:19.761Z,1018.54
2018-11-03T10:10:19.760Z,1018.51
2018-11-03T10:11:19.727Z,1018.58
2018-11-03T10:12:19.780Z,1018.55
2018-11-03T10:13:19.743Z,1018.51
2018-11-03T10:14:20.158Z,1018.54
2018-11-03T10:15:20.069Z,1018.49
2018-11-03T10:16:19.675Z,1018.44
2018-11-03T10:17:19.666Z,1018.41
2018-11-03T10:18:19.682Z,1018.38
2018-11-03T10:19:19.667Z,1018.42
2018-11-03T10:20:20.229Z,1018.48
2018-11-03T10:21:19.641Z,1018.44
2018-11-03T10:22:20.279Z,1018.48
2018-11-03T10:23:19.593Z,1018.48
2018-11-03T10:24:19.606Z,1018.48
2018-11-03T10:25:19.613Z,1018.45
2018-11-03T10:26:19.724Z,1018.46
2018-11-03T10:27:19.553Z,1018.46
2018-11-03T10:28:19.543Z,1018.44
2018-11-03T10:29:19.896Z,1018.40
2018-11-03T10:30:19.562Z,1018.41
2018-11-03T10:31:19.516Z,1018.37
2018-11-03T10:32:19.786Z,1018.34
2018-11-03T10:33:19.488Z,1018.30
2018-11-03T10:34:19.480Z,1018.29
2018-11-03T10:35:19.609Z,1018.32
2018-11-03T10:36:19.462Z,1018.31
2018-11-03T10:37:19.446Z,1018.25
2018-11-03T10:38:20.131Z,1018.20
2018-11-03T10:39:19.451Z,1018.21
2018-11-03T10:40:20.123Z,1018.18
2018-11-03T10:41:19.455Z,1018.14
2018-11-03T10:42:19.820Z,1018.20
2018-11-03T10:43:19.516Z,1018.17
2018-11-03T10:44:19.497Z,1018.21
2018-11-03T10:45:19.365Z,1018.18
2018-11-03T10:46:19.456Z,1018.19
2018-11-03T10:47:20.382Z,1018.14
2018-11-03T10:48:19.358Z,1018.15
2018-11-03T10:49:19.338Z,1018.07
2018-11-03T10:50:19.475Z,1018.16
2018-11-03T10:51:19.297Z,1018.10
2018-11-03T10:52:19.294Z,1018.18
2018-11-03T10:53:19.377Z,1018.11
2018-11-03T10:54:19.594Z,1018.15
2018-11-03T10:55:19.255Z,1018.07
2018-11-03T10:56:20.659Z,1018.06
2018-11-03T10:57:19.236Z,1018.03
2018-11-03T10:58:19.235Z,1018.02
2018-11-03T10:59:19.220Z,1018.02
2018-11-03T11:00:19.263Z,1017.99
2018-11-03T11:01:19.203Z,1018.01
2018-11-03T11:02:19.271Z,1017.96
2018-11-03T11:03:19.196Z,1017.95
2018-11-03T11:04:19.157Z,1017.90
2018-11-03T11:05:19.167Z,1017.92
2018-11-03T11:06:19.197Z,1017.90
2018-11-03T11:07:19.657Z,1017.91
2018-11-03T11:08:21.769Z,1017.90
2018-11-03T11:09:19.656Z,1017.93
2018-11-03T11:10:19.150Z,1017.85
2018-11-03T11:11:19.109Z,1017.83
2018-11-03T11:12:19.073Z,1017.82
2018-11-03T11:13:19.699Z,1017.81
2018-11-03T11:14:20.245Z,1017.81
2018-11-03T11:15:19.051Z,1017.84
2018-11-03T11:16:19.082Z,1017.84
2018-11-03T11:17:19.021Z,1017.83
2018-11-03T11:18:19.014Z,1017.85
2018-11-03T11:19:19.947Z,1017.84
2018-11-03T11:20:20.248Z,1017.79
2018-11-03T11:21:19.849Z,1017.83
2018-11-03T11:22:19.762Z,1017.85
2018-11-03T11:23:19.257Z,1017.85
2018-11-03T11:24:19.313Z,1017.94
2018-11-03T11:25:19.108Z,1017.90
2018-11-03T11:26:19.929Z,1017.90
2018-11-03T11:27:20.617Z,1017.89
2018-11-03T11:28:18.918Z,1017.84
2018-11-03T11:29:19.272Z,1017.88
2018-11-03T11:30:18.887Z,1017.88
2018-11-03T11:31:19.011Z,1017.77
2018-11-03T11:32:19.363Z,1017.75
2018-11-03T11:33:18.847Z,1017.77
2018-11-03T11:34:19.610Z,1017.78
2018-11-03T11:35:18.879Z,1017.72
2018-11-03T11:36:19.104Z,1017.85
2018-11-03T11:37:19.100Z,1017.79
2018-11-03T11:38:19.524Z,1017.85
2018-11-03T11:39:19.028Z,1017.80
2018-11-03T11:40:20.745Z,1017.78
2018-11-03T11:41:19.939Z,1017.79
2018-11-03T11:42:18.904Z,1017.79
2018-11-03T11:43:18.890Z,1017.78
2018-11-03T11:44:19.686Z,1017.82
2018-11-03T11:45:19.692Z,1017.72
2018-11-03T11:46:18.757Z,1017.61
2018-11-03T11:47:18.788Z,1017.70
2018-11-03T11:48:18.825Z,1017.86
2018-11-03T11:49:18.675Z,1017.82
2018-11-03T11:50:18.917Z,1017.87
2018-11-03T11:51:18.657Z,1017.81
2018-11-03T11:52:18.649Z,1017.75
2018-11-03T11:53:18.634Z,1017.70
2018-11-03T11:54:18.636Z,1017.62
2018-11-03T11:55:18.615Z,1017.64
2018-11-03T11:56:18.822Z,1017.55
2018-11-03T11:57:18.593Z,1017.71
2018-11-03T11:58:18.628Z,1017.67
2018-11-03T11:59:18.583Z,1017.66
2018-11-03T12:00:18.561Z,1017.71
2018-11-03T12:01:18.557Z,1017.56
2018-11-03T12:02:18.784Z,1017.65
2018-11-03T12:03:18.535Z,1017.62
2018-11-03T12:04:18.521Z,1017.66
2018-11-03T12:05:19.004Z,1017.69
2018-11-03T12:06:18.510Z,1017.62
2018-11-03T12:07:22.133Z,1017.67
2018-11-03T12:08:27.178Z,1017.64